createdAt,value
2017-05-19T00:00:45.408Z,85
2017-05-19T00:10:45.535Z,81
2017-05-19T00:20:45.459Z,81
2017-05-19T00:30:45.386Z,88
2017-05-19T00:40:45.584Z,91
2017-05-19T00:50:45.685Z,86
2017-05-19T01:00:45.470Z,99
2017-05-19T01:10:45.425Z,96
2017-05-19T01:20:45.387Z,99
2017-05-19T01:30:45.340Z,82
2017-05-19T01:40:45.396Z,87
2017-05-19T01:50:45.405Z,79
2017-05-19T02:00:45.442Z,74
2017-05-19T02:10:45.482Z,66
2017-05-19T02:20:45.423Z,69
2017-05-19T02:30:45.566Z,62
2017-05-19T02:40:45.473Z,71
2017-05-19T02:50:45.564Z,70
2017-05-19T03:00:45.457Z,79
2017-05-19T03:10:45.549Z,72
2017-05-19T03:20:45.480Z,72
2017-05-19T03:30:45.653Z,58
2017-05-19T03:40:45.531Z,50
2017-05-19T03:50:45.527Z,44
2017-05-19T04:00:45.633Z,38
2017-05-19T04:10:45.500Z,34
2017-05-19T04:20:45.581Z,35
2017-05-19T04:30:45.579Z,30
2017-05-19T04:40:45.576Z,31
2017-05-19T04:50:45.566Z,26
2017-05-19T05:00:45.695Z,29
2017-05-19T05:10:45.683Z,23
2017-05-19T05:20:45.613Z,21
2017-05-19T05:30:45.713Z,22
2017-05-19T05:40:45.684Z,19
2017-05-19T05:50:45.659Z,17
2017-05-19T06:00:45.738Z,16
2017-05-19T06:10:46.321Z,16
2017-05-19T06:20:45.911Z,14
2017-05-19T06:30:45.749Z,16
2017-05-19T06:40:45.748Z,15
2017-05-19T06:50:47.393Z,11
2017-05-19T07:00:46.242Z,9
2017-05-19T07:10:45.752Z,8
2017-05-19T07:20:46.070Z,8
2017-05-19T07:30:46.355Z,18
2017-05-19T07:40:46.771Z,16
2017-05-19T07:50:47.912Z,11
2017-05-19T08:01:03.033Z,11
2017-05-19T08:11:22.538Z,10
2017-05-19T08:30:59.794Z,10
2017-05-19T08:40:49.765Z,9
2017-05-19T08:50:55.062Z,9
2017-05-19T09:00:50.873Z,8
2017-05-19T09:10:50.536Z,10
2017-05-19T09:20:45.779Z,7
2017-05-19T09:30:45.899Z,7
2017-05-19T09:40:57.127Z,7
2017-05-19T10:00:56.369Z,7
2017-05-19T10:10:45.850Z,7
2017-05-19T10:20:45.835Z,6
2017-05-19T10:30:45.817Z,5
2017-05-19T10:40:45.796Z,6
2017-05-19T10:50:45.892Z,5
2017-05-19T11:00:45.844Z,6
2017-05-19T11:10:45.943Z,5
2017-05-19T11:20:46.013Z,6
2017-05-19T11:30:45.873Z,7
2017-05-19T11:40:45.936Z,8
2017-05-19T11:50:46.040Z,8
2017-05-19T12:00:45.905Z,8
2017-05-19T12:10:45.933Z,9
2017-05-19T12:20:45.952Z,9
2017-05-19T12:30:46.160Z,10
2017-05-19T12:40:45.978Z,10
2017-05-19T12:50:45.994Z,11
2017-05-19T13:00:46.679Z,13
2017-05-19T13:10:46.442Z,11
2017-05-19T13:20:46.618Z,12
2017-05-19T13:30:46.042Z,8
2017-05-19T13:40:46.010Z,8
2017-05-19T13:50:45.831Z,8
2017-05-19T14:00:45.926Z,9
2017-05-19T14:10:45.947Z,11
2017-05-19T14:20:45.895Z,12
2017-05-19T14:30:45.838Z,15
2017-05-19T14:40:45.868Z,17
2017-05-19T14:50:45.944Z,17
2017-05-19T15:00:45.901Z,17
2017-05-19T15:10:45.924Z,19
2017-05-19T15:20:45.959Z,18
2017-05-19T15:30:45.860Z,20
2017-05-19T15:40:45.979Z,21
2017-05-19T15:50:45.869Z,19
2017-05-19T16:00:45.850Z,20
2017-05-19T16:10:45.830Z,23
2017-05-19T16:20:45.826Z,25
2017-05-19T16:30:45.940Z,21
2017-05-19T16:40:46.052Z,24
2017-05-19T16:50:45.923Z,23
2017-05-19T17:00:45.814Z,26
2017-05-19T17:10:45.910Z,26
2017-05-19T17:20:45.795Z,27
2017-05-19T17:30:45.801Z,23
2017-05-19T17:40:45.936Z,21
2017-05-19T17:50:45.914Z,24
2017-05-19T18:00:45.799Z,24
2017-05-19T18:10:45.820Z,24
2017-05-19T18:20:45.895Z,22
2017-05-19T18:30:45.839Z,22
2017-05-19T18:40:47.619Z,25
2017-05-19T18:52:02.059Z,23
2017-05-19T19:01:54.623Z,23
2017-05-19T19:10:46.133Z,25
2017-05-19T19:20:45.785Z,28
2017-05-19T19:30:45.821Z,25
2017-05-19T19:40:46.718Z,28
2017-05-19T19:50:45.793Z,31
2017-05-19T20:00:45.820Z,30
2017-05-19T20:10:45.815Z,31
2017-05-19T20:20:45.792Z,35
2017-05-19T20:30:45.779Z,38
2017-05-19T20:40:45.913Z,35
2017-05-19T20:50:45.773Z,35
2017-05-19T21:00:45.823Z,35
2017-05-19T21:10:45.830Z,40
2017-05-19T21:20:45.769Z,40
2017-05-19T21:30:45.784Z,39
2017-05-19T21:40:45.795Z,39
2017-05-19T21:50:45.785Z,37
2017-05-19T22:00:45.810Z,45
2017-05-19T22:10:45.845Z,41
2017-05-19T22:20:45.771Z,40
2017-05-19T22:30:45.776Z,36
2017-05-19T22:40:46.006Z,41
2017-05-19T22:50:47.626Z,43
2017-05-19T23:00:45.847Z,40
2017-05-19T23:10:45.766Z,42
2017-05-19T23:20:46.806Z,42
2017-05-19T23:30:47.869Z,37
2017-05-19T23:40:45.765Z,32
2017-05-19T23:50:45.818Z,36
